createdAt,value
2018-06-29T00:04:40.047Z,1.08
2018-06-29T00:10:35.122Z,1.11
2018-06-29T00:16:30.217Z,1.42
2018-06-29T00:22:25.128Z,1.42
2018-06-29T00:28:20.097Z,1.34
2018-06-29T00:34:15.055Z,1.3
2018-06-29T00:40:10.064Z,1.5
2018-06-29T00:46:05.149Z,1.23
2018-06-29T00:52:00.101Z,1.06
2018-06-29T00:57:55.095Z,0.9
2018-06-29T01:03:50.094Z,0.9
2018-06-29T01:09:45.151Z,1.04
2018-06-29T01:15:40.168Z,1.43
2018-06-29T01:21:35.245Z,1.07
2018-06-29T01:27:30.100Z,0.85
2018-06-29T01:33:25.087Z,1.09
2018-06-29T02:03:00.088Z,1.06
2018-06-29T02:03:00.315Z,0.86
2018-06-29T02:03:00.321Z,0.86
2018-06-29T02:03:00.419Z,0.86
2018-06-29T02:08:55.153Z,0.99
2018-06-29T02:14:50.126Z,1.04
2018-06-29T02:20:45.227Z,1.04
2018-06-29T02:26:40.106Z,0.99
2018-06-29T02:32:35.124Z,0.94
2018-06-29T02:38:30.136Z,1.45
2018-06-29T02:44:25.122Z,1.18
2018-06-29T02:50:20.116Z,0.72
2018-06-29T02:56:15.180Z,1.07
2018-06-29T03:02:10.122Z,0.76
2018-06-29T03:08:05.129Z,0.74
2018-06-29T03:14:00.148Z,0.81
2018-06-29T03:19:55.229Z,0.93
2018-06-29T03:25:50.181Z,0.96
2018-06-29T03:31:45.119Z,1.33
2018-06-29T03:37:40.129Z,1.17
2018-06-29T03:43:35.089Z,1.28
2018-06-29T03:49:30.155Z,0.86
2018-06-29T03:55:25.132Z,1
2018-06-29T04:01:20.153Z,0.82
2018-06-29T04:07:15.172Z,0.72
2018-06-29T04:13:10.225Z,1.05
2018-06-29T04:19:05.108Z,1.23
2018-06-29T04:25:00.110Z,0.91
2018-06-29T04:30:55.125Z,0.87
2018-06-29T04:36:50.100Z,0.92
2018-06-29T05:00:30.120Z,0.82
2018-06-29T05:00:30.252Z,1.22
2018-06-29T05:00:30.308Z,1.22
2018-06-29T05:00:30.391Z,1.22
2018-06-29T05:06:25.136Z,0.81
2018-06-29T05:12:20.212Z,0.83
2018-06-29T05:18:15.120Z,1.36
2018-06-29T05:24:10.180Z,1.34
2018-06-29T05:30:05.140Z,1.23
2018-06-29T05:36:00.148Z,1.77
2018-06-29T05:41:55.142Z,2.06
2018-06-29T05:47:50.174Z,1.94
2018-06-29T05:53:45.154Z,2.34
2018-06-29T05:59:40.129Z,1.93
2018-06-29T06:05:35.110Z,2.05
2018-06-29T06:11:30.146Z,3.05
2018-06-29T06:17:25.109Z,3.47
2018-06-29T06:23:20.139Z,2.93
2018-06-29T06:29:15.119Z,3.65
2018-06-29T06:35:10.187Z,4.3
2018-06-29T06:41:05.178Z,3.57
2018-06-29T06:47:00.193Z,4.66
2018-06-29T06:52:55.127Z,3.91
2018-06-29T06:58:50.229Z,3.21
2018-06-29T07:04:45.162Z,2.75
2018-06-29T07:10:40.155Z,3.42
2018-06-29T07:16:35.172Z,4.24
2018-06-29T07:22:30.167Z,3.48
2018-06-29T07:28:25.177Z,3.37
2018-06-29T07:34:20.169Z,3.57
2018-06-29T08:03:55.312Z,4.88
2018-06-29T08:03:55.408Z,3.09
2018-06-29T08:03:55.408Z,3.09
2018-06-29T08:03:55.493Z,3.09
2018-06-29T08:09:50.247Z,3.56
2018-06-29T08:15:45.264Z,3.01
2018-06-29T08:21:40.236Z,3.11
2018-06-29T08:27:35.182Z,3.51
2018-06-29T08:33:30.203Z,3.63
2018-06-29T08:39:25.177Z,3.22
2018-06-29T08:45:20.162Z,2.61
2018-06-29T08:51:15.213Z,2.29
2018-06-29T08:57:10.185Z,2.44
2018-06-29T09:03:05.196Z,1.17
2018-06-29T09:09:00.250Z,1.55
2018-06-29T09:14:55.215Z,1.5
2018-06-29T09:20:50.189Z,1.6
2018-06-29T09:26:45.213Z,1.7
2018-06-29T09:32:40.203Z,2.32
2018-06-29T09:38:35.284Z,2
2018-06-29T09:44:30.224Z,1.89
2018-06-29T09:50:25.377Z,2.26
2018-06-29T09:56:20.250Z,1.95
2018-06-29T10:02:15.280Z,1.84
2018-06-29T10:08:10.198Z,2.06
2018-06-29T10:14:05.265Z,1.91
2018-06-29T10:20:00.300Z,2.36
2018-06-29T10:25:55.198Z,1.56
2018-06-29T10:31:50.216Z,1.75
2018-06-29T10:37:45.202Z,1.4
2018-06-29T11:01:25.230Z,1.06
2018-06-29T11:01:25.253Z,1.29
2018-06-29T11:01:25.262Z,1.29
2018-06-29T11:01:25.357Z,1.29
2018-06-29T11:07:20.308Z,1.4
2018-06-29T11:13:15.251Z,1.26
2018-06-29T11:19:10.264Z,1.18
2018-06-29T11:25:05.228Z,1.25
2018-06-29T11:31:00.232Z,0.94
2018-06-29T11:36:55.237Z,1.07
2018-06-29T11:42:50.300Z,1.31
2018-06-29T11:48:45.342Z,1.25
2018-06-29T11:54:40.259Z,1.21
2018-06-29T12:00:35.251Z,1.21
2018-06-29T12:06:30.352Z,1.21
2018-06-29T12:12:25.319Z,1.45
2018-06-29T12:18:20.340Z,1.21
2018-06-29T12:24:15.258Z,1.06
2018-06-29T12:30:10.452Z,1.15
2018-06-29T12:36:05.319Z,1.07
2018-06-29T12:42:00.332Z,1.32
2018-06-29T12:47:55.312Z,1.28
2018-06-29T12:53:50.275Z,1.44
2018-06-29T12:59:45.369Z,1.24
2018-06-29T13:05:40.383Z,1.21
2018-06-29T13:11:35.260Z,1.2
2018-06-29T13:17:30.332Z,1.31
2018-06-29T13:23:25.334Z,1.36
2018-06-29T13:29:20.384Z,1.74
2018-06-29T13:35:15.336Z,1.68
2018-06-29T14:04:50.312Z,1.45
2018-06-29T14:04:50.360Z,1.47
2018-06-29T14:04:50.385Z,1.47
2018-06-29T14:04:50.421Z,1.47
2018-06-29T14:10:45.363Z,1.42
2018-06-29T14:16:40.446Z,1.49
2018-06-29T14:22:35.366Z,1.39
2018-06-29T14:28:30.358Z,1.52
2018-06-29T14:34:25.332Z,1.33
2018-06-29T14:40:20.346Z,1.62
2018-06-29T14:46:15.340Z,1.45
2018-06-29T14:52:10.320Z,1.67
2018-06-29T14:58:05.352Z,1.59
2018-06-29T15:04:00.352Z,1.72
2018-06-29T15:09:55.382Z,1.84
2018-06-29T15:15:50.459Z,1.46
2018-06-29T15:21:45.499Z,1.88
2018-06-29T15:27:40.389Z,1.65
2018-06-29T15:33:35.364Z,1.59
2018-06-29T15:39:30.369Z,1.77
2018-06-29T15:45:25.484Z,2.02
2018-06-29T15:51:20.390Z,1.74
2018-06-29T15:57:15.437Z,1.76
2018-06-29T16:03:10.365Z,2.01
2018-06-29T16:09:05.384Z,1.86
2018-06-29T16:15:00.473Z,1.8
2018-06-29T16:20:55.335Z,1.83
2018-06-29T16:26:50.426Z,1.93
2018-06-29T16:32:45.347Z,1.9
2018-06-29T16:38:40.367Z,2.2
2018-06-29T17:02:20.388Z,2.23
2018-06-29T17:02:20.486Z,2.16
2018-06-29T17:02:20.514Z,2.16
2018-06-29T17:02:20.570Z,2.16
2018-06-29T17:08:15.378Z,1.92
2018-06-29T17:14:10.477Z,1.8
2018-06-29T17:20:05.468Z,1.79
2018-06-29T17:26:00.440Z,1.77
2018-06-29T17:31:55.399Z,2.14
2018-06-29T17:37:50.418Z,2.02
2018-06-29T17:43:45.418Z,2.01
2018-06-29T17:49:40.448Z,1.97
2018-06-29T17:55:35.436Z,1.92
2018-06-29T18:01:30.396Z,2.06
2018-06-29T18:07:25.446Z,1.71
2018-06-29T18:13:20.561Z,2.37
2018-06-29T18:19:15.445Z,2.25
2018-06-29T18:25:10.476Z,2.23
2018-06-29T18:31:05.485Z,2.56
2018-06-29T18:37:00.468Z,2.29
2018-06-29T18:42:55.436Z,2.63
2018-06-29T18:48:50.453Z,2.31
2018-06-29T18:54:45.446Z,2.7
2018-06-29T19:00:40.430Z,2.22
2018-06-29T19:06:35.495Z,2.41
2018-06-29T19:12:30.457Z,2.69
2018-06-29T19:18:25.567Z,2.32
2018-06-29T19:24:20.439Z,3.12
2018-06-29T19:30:15.470Z,3.02
2018-06-29T19:36:10.466Z,2.55
2018-06-29T20:05:45.507Z,2.9
2018-06-29T20:05:45.612Z,3.53
2018-06-29T20:05:45.614Z,3.53
2018-06-29T20:05:45.634Z,3.53
2018-06-29T20:11:40.482Z,2.75
2018-06-29T20:17:35.494Z,3.1
2018-06-29T20:23:30.472Z,3.08
2018-06-29T20:29:25.456Z,3.57
2018-06-29T20:35:20.500Z,3.89
2018-06-29T20:41:15.474Z,4.22
2018-06-29T20:47:10.491Z,3.55
2018-06-29T20:53:05.477Z,3.64
2018-06-29T20:59:00.495Z,3.39
2018-06-29T21:04:55.536Z,3.1
2018-06-29T21:10:50.495Z,3.37
2018-06-29T21:16:45.479Z,2.81
2018-06-29T21:22:40.554Z,2.92
2018-06-29T21:28:35.480Z,2.77
2018-06-29T21:34:30.521Z,3.12
2018-06-29T21:40:25.545Z,2.95
2018-06-29T21:46:20.517Z,3.55
2018-06-29T21:52:15.520Z,2.89
2018-06-29T21:58:10.501Z,2.96
2018-06-29T22:04:05.564Z,3
2018-06-29T22:10:00.520Z,2.82
2018-06-29T22:15:55.508Z,2.38
2018-06-29T22:21:50.574Z,2.77
2018-06-29T22:27:45.499Z,2.9
2018-06-29T22:33:40.551Z,3.09
2018-06-29T22:39:35.520Z,2.79
2018-06-29T23:03:15.516Z,2.93
2018-06-29T23:03:15.728Z,4.13
2018-06-29T23:03:15.740Z,4.13
2018-06-29T23:03:15.804Z,4.13
2018-06-29T23:09:10.532Z,3.61
2018-06-29T23:15:05.546Z,4.04
2018-06-29T23:21:00.617Z,3.32
2018-06-29T23:26:55.535Z,3.5
2018-06-29T23:32:50.607Z,3.27
2018-06-29T23:38:45.592Z,3.18
2018-06-29T23:44:40.530Z,3.9
2018-06-29T23:50:35.539Z,3.93
2018-06-29T23:56:30.574Z,5.61
